Crook, CO

9:38 PM MST on November 26, 2014 (GMT -0700)
Sidney Municipal | Change Station
CLOSE
Current Station
Airport
Location: Sidney,
Elevation: 4304 ft
Nearby Weather Stations

Elev 4304 ft 41.10 °N, 102.99 °W | Updated 45 minutes ago

Clear
Clear
17 °F
Feels Like 6 °F
N
9
Wind Variable Wind from SSW

Today
High -- | Low -- °F
--% Chance of Precip.
Yesterday
High -- | Low -- °F
Precip. -- in
6:51 AM 4:25 PM
Waxing Crescent, 25% visible
Pressure 30.42 in
Visibility 10.0 miles
Clouds Clear
Windchill 6 °F
Dew Point 14 °F
Humidity 88%
Rainfall 0.07 in
Snow Depth Not available.
UV 0 out of 12
Pollen .10 out of 12
Air Quality Not available.
Flu Activity Not available.
METAR KSNY 270353Z AUTO 20008KT 10SM CLR M08/M10 A3028 RMK AO2 SLP301 I1000 T10831100

More Conditions Fewer Conditions

Pressure 30.42 in
Visibility 10.0 miles
Clouds Clear
Windchill 6 °F
Dew Point 14 °F
Humidity 88%
Rainfall 0.07 in
Snow Depth Not available.
UV 0 out of 12
Pollen .10 out of 12
Air Quality Not available.
Flu Activity Not available.
METAR KSNY 270353Z AUTO 20008KT 10SM CLR M08/M10 A3028 RMK AO2 SLP301 I1000 T10831100

More Conditions Fewer Conditions

10-Day Weather Forecast

Almanac

Astronomy

Nov. 26, 2014 Rise Set
Actual Time
Civil Twilight
Nautical Twilight
Astronomical Twilight
Moon
Length of Visible Light
Length of Day
Tomorrow will be .
, % of the Moon is Illuminated

Today's Extremes

State Highs State Lows

Community

WunderPhotos

Upload Photos

1,773,959 photos uploaded!

WunderBlogs® & News

Nearby

Air Quality

  Air Quality AQ Index Pollutant
Not available.

Snow Depth

Station Depth Elevation

Earthquake Activity

City Distance Mag. Time & Date
Minimum magnitude displayed is 2.5.

Coastal Water Temperatures

Place Temperature

Nearby Weather Stations